Arm, Mississippi
Current Conditions -  °F | °C
As of 11:35 AM on Tuesday 21 Oct 2014 (Local Time) from K1R7 Reporting Station
Clear Clear  
Wind Chill: 72°   Ceiling: Unl
Heat Index: 72°   Visibility: 10mi
Dew Point: 54°   Wind: 6mph
Humidity: 53%   Direction: 10°N
Pressure: 30.11"   Gusts: NA
Location:  31.5868°N, 90.03°W
Report Text: K1R7 211635Z AUTO 01005KT 10SM CLR 22/12 A3011 RMK AO2
Loading
Personal Weather Stations






























Interactive Weather Map
Tropical Storm Tracking
New forecast layout! Learn more

10-Day Weather Forecast

Advertisements
Track Severe Weather on mobile